createdAt,value
2022-08-11T00:00:05.740Z,52.79
2022-08-11T00:01:05.717Z,54.66
2022-08-11T00:02:05.745Z,55.46
2022-08-11T00:03:06.827Z,52.52
2022-08-11T00:04:06.902Z,50.78
2022-08-11T00:05:05.706Z,51.03
2022-08-11T00:06:05.793Z,50.84
2022-08-11T00:07:05.771Z,52.72
2022-08-11T00:08:05.759Z,53.46
2022-08-11T00:09:05.818Z,51.65
2022-08-11T00:10:05.728Z,53.62
2022-08-11T00:11:05.713Z,57.30
2022-08-11T00:12:05.711Z,54.12
2022-08-11T00:13:05.793Z,53.90
2022-08-11T00:14:05.756Z,54.46
2022-08-11T00:15:05.739Z,55.57
2022-08-11T00:16:05.694Z,52.99
2022-08-11T00:17:05.701Z,53.69
2022-08-11T00:18:05.811Z,55.33
2022-08-11T00:19:05.982Z,55.32
2022-08-11T00:20:12.077Z,53.35
2022-08-11T00:21:06.739Z,54.07
2022-08-11T00:22:06.346Z,54.14
2022-08-11T00:23:06.679Z,53.78
2022-08-11T00:24:05.649Z,52.61
2022-08-11T00:25:05.775Z,51.93
2022-08-11T00:26:05.701Z,53.54
2022-08-11T00:27:05.673Z,55.63
2022-08-11T00:28:05.527Z,51.50
2022-08-11T00:29:06.709Z,51.61
2022-08-11T00:30:05.628Z,55.45
2022-08-11T00:31:05.527Z,52.83
2022-08-11T00:32:05.592Z,54.29
2022-08-11T00:33:05.509Z,52.55
2022-08-11T00:34:05.452Z,52.96
2022-08-11T00:35:54.047Z,52.37
2022-08-11T00:36:06.501Z,55.27
2022-08-11T00:37:05.571Z,51.68
2022-08-11T00:38:05.536Z,51.45
2022-08-11T00:39:05.545Z,53.99
2022-08-11T00:40:05.597Z,51.45
2022-08-11T00:41:05.498Z,54.13
2022-08-11T00:42:05.583Z,53.55
2022-08-11T00:43:05.507Z,54.45
2022-08-11T00:44:06.395Z,53.35
2022-08-11T00:45:05.507Z,56.46
2022-08-11T00:46:05.664Z,52.43
2022-08-11T00:47:05.432Z,56.97
2022-08-11T00:48:05.470Z,56.96
2022-08-11T00:49:05.446Z,57.09
2022-08-11T00:50:05.431Z,55.07
2022-08-11T00:51:05.472Z,52.69
2022-08-11T00:52:06.402Z,56.41
2022-08-11T00:53:06.445Z,54.85
2022-08-11T00:54:05.428Z,55.75
2022-08-11T00:55:05.418Z,54.65
2022-08-11T00:56:05.449Z,54.15
2022-08-11T00:57:36.306Z,53.20
2022-08-11T00:58:06.302Z,55.24
2022-08-11T00:59:05.326Z,55.97
2022-08-11T01:00:06.323Z,53.83
2022-08-11T01:01:05.351Z,52.91
2022-08-11T01:02:05.317Z,53.58
2022-08-11T01:03:05.286Z,56.20
2022-08-11T01:04:05.271Z,53.79
2022-08-11T01:05:05.261Z,54.70
2022-08-11T01:06:07.942Z,53.76
2022-08-11T01:07:05.357Z,55.11
2022-08-11T01:08:05.242Z,56.15
2022-08-11T01:09:05.279Z,55.38
2022-08-11T01:10:07.419Z,55.10
2022-08-11T01:11:06.381Z,56.98
2022-08-11T01:12:05.335Z,55.27
2022-08-11T01:13:05.175Z,53.25
2022-08-11T01:14:05.270Z,56.32
2022-08-11T01:15:05.251Z,53.71
2022-08-11T01:16:05.237Z,54.90
2022-08-11T01:17:05.247Z,53.70
2022-08-11T01:18:05.314Z,54.19
2022-08-11T01:19:05.235Z,53.96
2022-08-11T01:20:47.806Z,58.06
2022-08-11T01:21:06.141Z,55.41
2022-08-11T01:22:05.259Z,53.94
2022-08-11T01:23:07.370Z,54.90
2022-08-11T01:24:05.258Z,54.33
2022-08-11T01:25:05.190Z,55.11
2022-08-11T01:26:05.266Z,55.34
2022-08-11T01:27:05.175Z,53.49
2022-08-11T01:28:06.109Z,54.25
2022-08-11T01:29:05.150Z,58.39
2022-08-11T01:30:05.254Z,55.28
2022-08-11T01:31:05.132Z,55.01
2022-08-11T01:32:05.129Z,56.66
2022-08-11T01:33:05.150Z,57.45
2022-08-11T01:34:05.152Z,57.78
2022-08-11T01:35:05.104Z,55.72
2022-08-11T01:36:05.111Z,54.15
2022-08-11T01:37:05.099Z,55.99
2022-08-11T01:38:05.082Z,56.87
2022-08-11T01:39:05.096Z,55.50
2022-08-11T01:40:05.095Z,56.47
2022-08-11T01:41:05.059Z,57.23
2022-08-11T01:42:05.111Z,54.69
2022-08-11T01:43:05.044Z,55.49
2022-08-11T01:44:04.998Z,53.52
2022-08-11T01:45:06.118Z,53.01
2022-08-11T01:46:05.006Z,53.29
2022-08-11T01:47:05.085Z,53.74
2022-08-11T01:48:05.054Z,56.19
2022-08-11T01:50:06.743Z,54.21
2022-08-11T01:50:10.254Z,56.89
2022-08-11T01:51:04.922Z,56.02
2022-08-11T01:52:04.911Z,53.36
2022-08-11T01:53:04.939Z,53.50
2022-08-11T01:54:04.910Z,55.96
2022-08-11T01:55:04.944Z,54.84
2022-08-11T01:56:04.863Z,53.44
2022-08-11T01:57:04.882Z,55.01
2022-08-11T01:58:04.863Z,53.77
2022-08-11T01:59:04.934Z,55.77
2022-08-11T02:00:05.980Z,56.43
2022-08-11T02:01:04.949Z,57.36
2022-08-11T02:02:04.893Z,56.74
2022-08-11T02:03:04.913Z,53.68
2022-08-11T02:04:04.889Z,53.81
2022-08-11T02:05:04.966Z,56.98
2022-08-11T02:06:04.953Z,55.42
2022-08-11T02:07:04.872Z,58.38
2022-08-11T02:08:04.976Z,56.43
2022-08-11T02:09:04.865Z,58.65
2022-08-11T02:10:04.921Z,57.78
2022-08-11T02:11:04.974Z,57.35
2022-08-11T02:12:04.935Z,55.88
2022-08-11T02:13:04.840Z,56.72
2022-08-11T02:14:04.786Z,57.66
2022-08-11T02:15:05.801Z,55.30
2022-08-11T02:16:04.817Z,56.15
2022-08-11T02:17:04.806Z,55.74
2022-08-11T02:18:04.826Z,54.76
2022-08-11T02:19:04.789Z,55.98
2022-08-11T02:20:04.686Z,56.84
2022-08-11T02:21:04.746Z,57.36
2022-08-11T02:22:04.993Z,56.22
2022-08-11T02:23:04.647Z,54.14
2022-08-11T02:24:07.891Z,56.95
2022-08-11T02:25:04.734Z,56.58
2022-08-11T02:26:04.983Z,58.16
2022-08-11T02:27:04.640Z,57.55
2022-08-11T02:28:04.716Z,56.04
2022-08-11T02:29:04.762Z,56.72
2022-08-11T02:30:04.700Z,56.22
2022-08-11T02:31:04.751Z,57.31
2022-08-11T02:32:24.052Z,56.41
2022-08-11T02:33:05.621Z,57.92
2022-08-11T02:34:04.679Z,54.27
2022-08-11T02:35:04.762Z,54.03
2022-08-11T02:36:04.677Z,58.48
2022-08-11T02:37:04.699Z,55.21
2022-08-11T02:38:04.676Z,56.35
2022-08-11T02:39:04.654Z,54.24
2022-08-11T02:40:04.637Z,56.32
2022-08-11T02:41:04.603Z,55.19
2022-08-11T02:42:04.670Z,54.60
2022-08-11T02:43:04.606Z,55.19
2022-08-11T02:44:04.526Z,57.08
2022-08-11T02:45:05.542Z,56.56
2022-08-11T02:46:04.489Z,56.46
2022-08-11T02:47:04.511Z,57.55
2022-08-11T02:48:04.541Z,55.51
2022-08-11T02:49:04.581Z,58.06
2022-08-11T02:50:07.335Z,57.84
2022-08-11T02:51:04.463Z,56.62
2022-08-11T02:52:04.471Z,57.43
2022-08-11T02:53:04.548Z,55.70
2022-08-11T02:54:04.581Z,57.70
2022-08-11T02:55:04.526Z,54.65
2022-08-11T02:56:04.631Z,55.15
2022-08-11T02:57:04.488Z,55.03
2022-08-11T02:58:05.460Z,57.57
2022-08-11T02:59:04.528Z,55.73
2022-08-11T03:00:04.461Z,57.15
2022-08-11T03:01:04.467Z,55.29
2022-08-11T03:02:05.365Z,57.77
2022-08-11T03:03:04.454Z,57.38
2022-08-11T03:04:04.481Z,57.36
2022-08-11T03:05:04.437Z,54.97
2022-08-11T03:06:04.446Z,58.06
2022-08-11T03:07:04.852Z,56.42
2022-08-11T03:08:05.380Z,55.92
2022-08-11T03:09:04.427Z,56.22
2022-08-11T03:10:04.419Z,57.47
2022-08-11T03:11:05.406Z,56.70
2022-08-11T03:12:04.392Z,58.37
2022-08-11T03:13:04.454Z,58.03
2022-08-11T03:14:04.508Z,58.21
2022-08-11T03:15:04.438Z,58.34
2022-08-11T03:16:04.356Z,58.16
2022-08-11T03:17:04.463Z,57.63
2022-08-11T03:18:04.358Z,58.77
2022-08-11T03:19:04.344Z,57.94
2022-08-11T03:20:04.390Z,58.46
2022-08-11T03:21:04.297Z,57.77
2022-08-11T03:22:06.628Z,58.01
2022-08-11T03:23:04.292Z,59.45
2022-08-11T03:24:05.270Z,59.24
2022-08-11T03:25:06.464Z,60.16
2022-08-11T03:26:04.336Z,64.13
2022-08-11T03:27:04.306Z,57.43
2022-08-11T03:28:04.287Z,59.34
2022-08-11T03:29:04.271Z,59.35
2022-08-11T03:30:04.307Z,58.27
2022-08-11T03:31:04.254Z,60.74
2022-08-11T03:32:04.343Z,59.00
2022-08-11T03:33:04.239Z,61.58
2022-08-11T03:34:07.041Z,59.33
2022-08-11T03:35:05.185Z,56.53
2022-08-11T03:36:04.145Z,57.42
2022-08-11T03:37:16.425Z,59.40
2022-08-11T03:38:05.179Z,61.11
2022-08-11T03:39:04.201Z,60.54
2022-08-11T03:40:04.383Z,62.16
2022-08-11T03:41:04.270Z,61.14
2022-08-11T03:42:07.662Z,62.48
2022-08-11T03:43:05.110Z,60.83
2022-08-11T03:44:04.146Z,60.23
2022-08-11T03:45:04.141Z,61.09
2022-08-11T03:46:04.190Z,58.62
2022-08-11T03:47:04.137Z,60.34
2022-08-11T03:48:04.166Z,61.23
2022-08-11T03:49:04.105Z,60.00
2022-08-11T03:50:04.114Z,60.69
2022-08-11T03:51:04.162Z,59.78
2022-08-11T03:52:04.118Z,61.19
2022-08-11T03:53:04.117Z,61.89
2022-08-11T03:54:04.100Z,63.40
2022-08-11T03:55:04.121Z,60.52
2022-08-11T03:56:04.124Z,60.42
2022-08-11T03:57:04.176Z,61.85
2022-08-11T03:58:04.069Z,61.37
2022-08-11T03:59:04.164Z,59.20
2022-08-11T04:00:04.025Z,59.97
2022-08-11T04:01:04.173Z,60.21
2022-08-11T04:02:04.085Z,59.24
2022-08-11T04:03:04.040Z,60.13
2022-08-11T04:04:04.005Z,61.65
2022-08-11T04:05:04.022Z,63.67
2022-08-11T04:06:04.013Z,62.15
2022-08-11T04:07:04.044Z,61.75
2022-08-11T04:08:03.980Z,63.22
2022-08-11T04:09:03.999Z,61.28
2022-08-11T04:10:03.972Z,62.70
2022-08-11T04:11:03.981Z,62.75
2022-08-11T04:12:03.983Z,62.42
2022-08-11T04:13:03.966Z,61.83
2022-08-11T04:14:03.979Z,59.34
2022-08-11T04:15:03.947Z,60.04
2022-08-11T04:16:11.929Z,62.31
2022-08-11T04:17:04.977Z,62.14
2022-08-11T04:18:03.988Z,61.37
2022-08-11T04:19:03.909Z,62.27
2022-08-11T04:20:03.989Z,65.00
2022-08-11T04:21:03.915Z,64.20
2022-08-11T04:22:03.995Z,63.62
2022-08-11T04:23:03.910Z,62.48
2022-08-11T04:24:36.171Z,63.24
2022-08-11T04:25:04.786Z,61.20
2022-08-11T04:26:15.919Z,61.12
2022-08-11T04:27:04.907Z,62.80
2022-08-11T04:28:03.809Z,63.09
2022-08-11T04:29:03.747Z,62.77
2022-08-11T04:30:05.367Z,61.96
2022-08-11T04:31:03.733Z,62.60
2022-08-11T04:32:03.820Z,61.44
2022-08-11T04:33:03.873Z,61.87
2022-08-11T04:34:03.810Z,62.72
2022-08-11T04:35:03.802Z,61.86
2022-08-11T04:36:03.783Z,62.20
2022-08-11T04:37:03.796Z,62.52
2022-08-11T04:38:03.827Z,63.71
2022-08-11T04:39:03.823Z,61.48
2022-08-11T04:40:03.754Z,60.72
2022-08-11T04:41:03.849Z,60.70
2022-08-11T04:42:03.754Z,60.90
2022-08-11T04:43:03.857Z,61.32
2022-08-11T04:44:06.643Z,61.61
2022-08-11T04:45:03.812Z,62.72
2022-08-11T04:46:03.719Z,60.63
2022-08-11T04:47:03.711Z,61.88
2022-08-11T04:48:04.900Z,61.93
2022-08-11T04:49:03.726Z,61.70
2022-08-11T04:50:03.712Z,62.17
2022-08-11T04:51:09.138Z,62.01
2022-08-11T04:52:04.686Z,60.48
2022-08-11T04:53:03.710Z,59.71
2022-08-11T04:54:03.707Z,59.53
2022-08-11T04:55:03.683Z,60.60
2022-08-11T04:56:03.665Z,59.57
2022-08-11T04:57:03.611Z,60.05
2022-08-11T04:58:03.661Z,62.13
2022-08-11T04:59:03.665Z,61.02
2022-08-11T05:00:03.598Z,59.58
2022-08-11T05:01:03.628Z,60.97
2022-08-11T05:02:03.756Z,59.30
2022-08-11T05:03:03.602Z,60.23
2022-08-11T05:04:03.709Z,58.77
2022-08-11T05:05:03.607Z,59.94
2022-08-11T05:06:03.572Z,60.72
2022-08-11T05:07:03.481Z,60.90
2022-08-11T05:08:03.475Z,60.85
2022-08-11T05:09:03.459Z,61.49
2022-08-11T05:10:03.533Z,59.88
2022-08-11T05:11:03.489Z,60.94
2022-08-11T05:12:03.458Z,59.20
2022-08-11T05:13:03.459Z,60.06
2022-08-11T05:14:03.490Z,60.27
2022-08-11T05:15:03.503Z,61.19
2022-08-11T05:16:03.512Z,60.60
2022-08-11T05:17:03.530Z,59.35
2022-08-11T05:18:03.532Z,61.04
2022-08-11T05:19:03.477Z,59.86
2022-08-11T05:20:03.496Z,59.14
2022-08-11T05:21:05.282Z,58.69
2022-08-11T05:22:04.464Z,60.44
2022-08-11T05:23:03.480Z,59.46
2022-08-11T05:24:03.444Z,61.53
2022-08-11T05:25:03.503Z,61.04
2022-08-11T05:26:42.986Z,59.29
2022-08-11T05:27:04.526Z,60.39
2022-08-11T05:28:03.455Z,61.07
2022-08-11T05:29:19.543Z,61.37
2022-08-11T05:30:04.345Z,62.33
2022-08-11T05:31:03.538Z,61.49
2022-08-11T05:32:03.407Z,60.94
2022-08-11T05:33:03.416Z,60.90
2022-08-11T05:34:03.400Z,60.06
2022-08-11T05:35:03.399Z,60.11
2022-08-11T05:36:03.634Z,59.81
2022-08-11T05:37:25.045Z,59.77
2022-08-11T05:38:05.312Z,60.38
2022-08-11T05:39:03.356Z,57.72
2022-08-11T05:40:03.432Z,59.23
2022-08-11T05:41:03.353Z,58.20
2022-08-11T05:42:03.373Z,60.06
2022-08-11T05:43:03.300Z,58.60
2022-08-11T05:44:20.512Z,59.72
2022-08-11T05:45:04.266Z,58.85
2022-08-11T05:46:07.151Z,58.37
2022-08-11T05:47:03.365Z,56.76
2022-08-11T05:48:03.320Z,58.15
2022-08-11T05:49:03.452Z,57.72
2022-08-11T05:50:03.225Z,57.16
2022-08-11T05:51:03.167Z,57.30
2022-08-11T05:52:05.284Z,58.13
2022-08-11T05:53:04.190Z,57.25
2022-08-11T05:54:03.182Z,57.40
2022-08-11T05:55:06.968Z,57.14
2022-08-11T05:56:03.920Z,56.36
2022-08-11T05:57:04.179Z,58.61
2022-08-11T05:58:03.158Z,58.18
2022-08-11T05:59:03.206Z,57.08
2022-08-11T06:00:03.182Z,57.97
2022-08-11T06:01:03.245Z,56.68
2022-08-11T06:02:03.261Z,57.30
2022-08-11T06:03:03.269Z,55.36
2022-08-11T06:04:03.239Z,57.16
2022-08-11T06:05:03.196Z,57.52
2022-08-11T06:06:03.175Z,56.05
2022-08-11T06:07:03.180Z,55.22
2022-08-11T06:08:03.222Z,56.34
2022-08-11T06:09:03.175Z,56.80
2022-08-11T06:10:03.126Z,56.22
2022-08-11T06:11:03.248Z,56.81
2022-08-11T06:12:03.224Z,57.11
2022-08-11T06:13:03.275Z,55.81
2022-08-11T06:14:03.179Z,56.70
2022-08-11T06:15:03.235Z,58.25
2022-08-11T06:16:06.836Z,56.37
2022-08-11T06:17:04.160Z,56.43
2022-08-11T06:18:03.106Z,55.71
2022-08-11T06:19:03.111Z,55.92
2022-08-11T06:20:07.176Z,58.05
2022-08-11T06:21:03.086Z,56.92
2022-08-11T06:22:03.052Z,56.63
2022-08-11T06:23:03.067Z,57.11
2022-08-11T06:24:03.093Z,55.94
2022-08-11T06:25:03.065Z,57.18
2022-08-11T06:26:02.962Z,55.94
2022-08-11T06:27:12.458Z,56.62
2022-08-11T06:28:04.923Z,54.61
2022-08-11T06:29:02.970Z,57.57
2022-08-11T06:30:02.941Z,56.61
2022-08-11T06:31:02.936Z,55.80
2022-08-11T06:32:02.944Z,57.06
2022-08-11T06:33:02.904Z,57.13
2022-08-11T06:34:02.945Z,56.50
2022-08-11T06:35:02.947Z,55.38
2022-08-11T06:36:03.048Z,56.22
2022-08-11T06:37:02.956Z,54.23
2022-08-11T06:38:03.061Z,56.47
2022-08-11T06:39:02.951Z,54.97
2022-08-11T06:40:03.128Z,54.25
2022-08-11T06:41:02.944Z,55.67
2022-08-11T06:42:02.919Z,56.99
2022-08-11T06:43:02.925Z,54.69
2022-08-11T06:44:09.642Z,55.03
2022-08-11T06:45:03.911Z,57.03
2022-08-11T06:46:02.917Z,54.01
2022-08-11T06:47:02.919Z,55.50
2022-08-11T06:48:02.927Z,56.52
2022-08-11T06:49:02.902Z,55.73
2022-08-11T06:50:02.968Z,54.44
2022-08-11T06:51:02.852Z,56.50
2022-08-11T06:52:04.511Z,54.74
2022-08-11T06:53:02.889Z,54.65
2022-08-11T06:54:04.243Z,55.65
2022-08-11T06:55:03.057Z,55.99
2022-08-11T06:56:02.837Z,56.44
2022-08-11T06:57:31.317Z,54.78
2022-08-11T06:58:04.756Z,55.51
2022-08-11T06:59:02.746Z,55.81
2022-08-11T07:00:02.722Z,56.19
2022-08-11T07:01:02.813Z,54.05
2022-08-11T07:02:02.769Z,56.08
2022-08-11T07:03:02.740Z,52.12
2022-08-11T07:04:02.689Z,53.84
2022-08-11T07:05:02.640Z,53.84
2022-08-11T07:06:02.698Z,53.63
2022-08-11T07:07:02.617Z,55.80
2022-08-11T07:08:34.852Z,53.65
2022-08-11T07:09:03.730Z,56.52
2022-08-11T07:10:02.629Z,51.80
2022-08-11T07:11:02.720Z,55.61
2022-08-11T07:12:02.651Z,57.60
2022-08-11T07:13:02.709Z,51.87
2022-08-11T07:14:02.707Z,52.61
2022-08-11T07:15:02.707Z,55.34
2022-08-11T07:16:11.152Z,55.43
2022-08-11T07:17:03.617Z,56.46
2022-08-11T07:18:02.744Z,56.26
2022-08-11T07:19:02.696Z,54.82
2022-08-11T07:20:02.739Z,53.14
2022-08-11T07:21:02.712Z,56.24
2022-08-11T07:22:04.112Z,55.93
2022-08-11T07:23:03.671Z,53.19
2022-08-11T07:24:02.788Z,53.64
2022-08-11T07:25:03.432Z,56.36
2022-08-11T07:26:03.699Z,52.89
2022-08-11T07:27:02.658Z,54.37
2022-08-11T07:28:02.592Z,51.97
2022-08-11T07:29:02.601Z,58.37
2022-08-11T07:30:02.577Z,55.48
2022-08-11T07:31:02.561Z,56.77
2022-08-11T07:32:02.664Z,61.45
2022-08-11T07:33:02.553Z,55.87
2022-08-11T07:34:06.342Z,54.60
2022-08-11T07:35:03.549Z,55.42
2022-08-11T07:36:02.540Z,53.04
2022-08-11T07:37:03.584Z,53.40
2022-08-11T07:38:04.082Z,56.34
2022-08-11T07:39:02.589Z,55.91
2022-08-11T07:40:02.599Z,54.84
2022-08-11T07:41:02.581Z,55.72
2022-08-11T07:42:02.486Z,57.77
2022-08-11T07:43:02.658Z,56.30
2022-08-11T07:44:02.416Z,54.49
2022-08-11T07:45:02.368Z,55.80
2022-08-11T07:46:02.403Z,53.41
2022-08-11T07:47:02.358Z,54.19
2022-08-11T07:48:02.416Z,54.03
2022-08-11T07:49:02.485Z,55.11
2022-08-11T07:50:02.363Z,54.26
2022-08-11T07:51:02.432Z,54.54
2022-08-11T07:52:02.434Z,51.30
2022-08-11T07:53:02.477Z,54.70
2022-08-11T07:54:07.474Z,54.91
2022-08-11T07:55:03.356Z,55.89
2022-08-11T07:56:02.391Z,53.80
2022-08-11T07:57:09.419Z,53.43
2022-08-11T07:58:16.394Z,56.05
2022-08-11T07:59:08.213Z,66.31
2022-08-11T08:00:05.091Z,77.96
2022-08-11T08:01:02.628Z,66.13
2022-08-11T08:02:02.462Z,51.70
2022-08-11T08:03:02.321Z,54.26
2022-08-11T08:04:02.557Z,54.54
2022-08-11T08:05:02.353Z,52.89
2022-08-11T08:06:02.458Z,58.25
2022-08-11T08:07:02.349Z,69.69
2022-08-11T08:08:02.410Z,69.12
2022-08-11T08:09:02.398Z,58.61
2022-08-11T08:10:02.307Z,53.03
2022-08-11T08:11:02.303Z,52.91
2022-08-11T08:12:02.305Z,54.01
2022-08-11T08:13:02.339Z,55.42
2022-08-11T08:14:02.319Z,68.66
2022-08-11T08:15:02.348Z,66.23
2022-08-11T08:16:02.333Z,68.51
2022-08-11T08:17:02.151Z,58.91
2022-08-11T08:18:09.696Z,53.41
2022-08-11T08:19:03.203Z,52.39
2022-08-11T08:20:02.158Z,54.14
2022-08-11T08:21:02.165Z,55.44
2022-08-11T08:22:10.942Z,62.69
2022-08-11T08:23:03.112Z,54.69
2022-08-11T08:24:02.121Z,54.13
2022-08-11T08:25:02.310Z,54.99
2022-08-11T08:26:02.200Z,63.23
2022-08-11T08:27:02.328Z,58.31
2022-08-11T08:28:02.183Z,53.14
2022-08-11T08:29:02.235Z,53.27
2022-08-11T08:30:02.195Z,58.03
2022-08-11T08:31:02.246Z,53.00
2022-08-11T08:32:02.174Z,51.29
2022-08-11T08:33:02.117Z,70.65
2022-08-11T08:34:02.166Z,72.20
2022-08-11T08:35:04.589Z,53.60
2022-08-11T08:36:02.102Z,51.55
2022-08-11T08:37:02.139Z,50.16
2022-08-11T08:38:02.138Z,53.22
2022-08-11T08:39:02.122Z,66.98
2022-08-11T08:40:02.091Z,65.03
2022-08-11T08:41:02.145Z,68.82
2022-08-11T08:42:02.084Z,59.67
2022-08-11T08:43:02.110Z,56.79
2022-08-11T08:44:27.308Z,53.45
2022-08-11T08:45:03.973Z,50.51
2022-08-11T08:46:02.646Z,52.33
2022-08-11T08:47:02.030Z,51.76
2022-08-11T08:48:02.072Z,48.92
2022-08-11T08:49:02.022Z,52.67
2022-08-11T08:50:02.094Z,52.55
2022-08-11T08:51:02.090Z,49.43
2022-08-11T08:52:30.599Z,55.84
2022-08-11T08:53:03.916Z,52.34
2022-08-11T08:54:01.914Z,52.21
2022-08-11T08:55:02.007Z,51.34
2022-08-11T08:56:02.010Z,49.93
2022-08-11T08:57:01.954Z,49.50
2022-08-11T08:58:01.965Z,50.78
2022-08-11T08:59:01.938Z,52.67
2022-08-11T09:00:01.975Z,54.04
2022-08-11T09:01:02.033Z,51.41
2022-08-11T09:02:01.911Z,51.91
2022-08-11T09:03:17.207Z,56.57
2022-08-11T09:04:11.235Z,51.61
2022-08-11T09:05:02.956Z,53.79
2022-08-11T09:06:01.872Z,63.33
2022-08-11T09:07:01.798Z,67.71
2022-08-11T09:08:01.767Z,65.62
2022-08-11T09:09:01.792Z,66.82
2022-08-11T09:10:01.781Z,67.33
2022-08-11T09:11:01.739Z,51.31
2022-08-11T09:12:02.508Z,46.95
2022-08-11T09:13:01.742Z,53.24
2022-08-11T09:14:05.861Z,53.44
2022-08-11T09:15:01.776Z,53.44
2022-08-11T09:16:01.826Z,59.67
2022-08-11T09:17:01.862Z,55.10
2022-08-11T09:18:01.850Z,54.81
2022-08-11T09:19:01.811Z,53.51
2022-08-11T09:20:01.836Z,52.80
2022-08-11T09:21:01.764Z,51.77
2022-08-11T09:22:01.812Z,52.59
2022-08-11T09:24:02.057Z,53.53
2022-08-11T09:24:12.850Z,52.69
2022-08-11T09:25:03.698Z,50.55
2022-08-11T09:26:01.804Z,51.47
2022-08-11T09:27:01.798Z,58.04
2022-08-11T09:28:01.805Z,55.31
2022-08-11T09:29:01.745Z,57.48
2022-08-11T09:30:01.784Z,59.76
2022-08-11T09:31:01.717Z,52.35
2022-08-11T09:32:01.798Z,51.58
2022-08-11T09:33:01.742Z,50.67
2022-08-11T09:34:01.752Z,53.97
2022-08-11T09:35:01.685Z,63.23
2022-08-11T09:36:01.817Z,53.00
2022-08-11T09:37:01.711Z,48.74
2022-08-11T09:38:03.109Z,51.17
2022-08-11T09:39:01.660Z,58.27
2022-08-11T09:40:01.680Z,52.92
2022-08-11T09:41:01.642Z,51.59
2022-08-11T09:42:03.048Z,52.00
2022-08-11T09:43:02.665Z,52.36
2022-08-11T09:44:04.153Z,50.56
2022-08-11T09:45:02.618Z,56.09
2022-08-11T09:46:01.603Z,51.70
2022-08-11T09:47:01.646Z,50.29
2022-08-11T09:48:01.495Z,50.83
2022-08-11T09:49:01.624Z,55.18
2022-08-11T09:50:01.885Z,48.17
2022-08-11T09:51:01.578Z,51.02
2022-08-11T09:52:05.186Z,46.74
2022-08-11T09:53:36.256Z,53.68
2022-08-11T09:54:04.156Z,48.35
2022-08-11T09:55:01.450Z,45.94
2022-08-11T09:56:01.550Z,49.52
2022-08-11T09:57:05.195Z,53.71
2022-08-11T09:58:02.477Z,51.43
2022-08-11T09:59:01.517Z,48.62
2022-08-11T10:00:11.438Z,47.18
2022-08-11T10:01:02.496Z,49.36
2022-08-11T10:02:01.539Z,47.46
2022-08-11T10:03:01.499Z,51.32
2022-08-11T10:04:01.576Z,47.12
2022-08-11T10:05:01.473Z,45.47
2022-08-11T10:06:05.797Z,44.67
2022-08-11T10:07:04.387Z,46.46
2022-08-11T10:08:01.538Z,44.20
2022-08-11T10:09:01.501Z,45.65
2022-08-11T10:10:01.507Z,46.17
2022-08-11T10:11:01.429Z,48.88
2022-08-11T10:12:01.454Z,52.48
2022-08-11T10:13:01.459Z,48.30
2022-08-11T10:14:30.962Z,50.91
2022-08-11T10:15:02.428Z,49.43
2022-08-11T10:16:16.348Z,49.45
2022-08-11T10:17:02.337Z,45.49
2022-08-11T10:18:01.447Z,47.67
2022-08-11T10:19:01.429Z,46.15
2022-08-11T10:20:04.821Z,45.99
2022-08-11T10:21:01.379Z,51.40
2022-08-11T10:22:01.474Z,48.84
2022-08-11T10:23:01.385Z,54.08
2022-08-11T10:24:05.909Z,50.52
2022-08-11T10:25:02.374Z,46.28
2022-08-11T10:26:01.339Z,49.08
2022-08-11T10:27:01.297Z,47.85
2022-08-11T10:28:28.379Z,46.75
2022-08-11T10:29:13.066Z,46.10
2022-08-11T10:30:03.305Z,50.94
2022-08-11T10:31:01.231Z,48.65
2022-08-11T10:32:02.921Z,44.36
2022-08-11T10:33:02.193Z,52.41
2022-08-11T10:34:01.464Z,50.57
2022-08-11T10:35:01.263Z,50.90
2022-08-11T10:36:01.275Z,48.56
2022-08-11T10:37:01.268Z,44.56
2022-08-11T10:38:07.574Z,45.26
2022-08-11T10:39:02.304Z,48.18
2022-08-11T10:40:01.185Z,51.70
2022-08-11T10:41:01.293Z,48.65
2022-08-11T10:42:07.539Z,49.95
2022-08-11T10:43:02.393Z,50.65
2022-08-11T10:44:03.564Z,49.99
2022-08-11T10:45:01.084Z,44.91
2022-08-11T10:46:01.144Z,45.99
2022-08-11T10:47:01.101Z,54.32
2022-08-11T10:48:01.099Z,46.74
2022-08-11T10:49:01.055Z,42.78
2022-08-11T10:50:01.085Z,48.56
2022-08-11T10:51:02.368Z,45.37
2022-08-11T10:52:01.128Z,45.11
2022-08-11T10:53:01.149Z,44.27
2022-08-11T10:54:01.178Z,41.96
2022-08-11T10:55:01.153Z,43.05
2022-08-11T10:56:01.213Z,40.97
2022-08-11T10:57:01.190Z,50.61
2022-08-11T10:58:05.012Z,42.01
2022-08-11T10:59:04.016Z,42.65
2022-08-11T11:00:02.054Z,43.50
2022-08-11T11:01:02.251Z,43.07
2022-08-11T11:02:01.069Z,40.44
2022-08-11T11:03:22.355Z,41.97
2022-08-11T11:04:01.988Z,46.46
2022-08-11T11:05:01.092Z,46.09
2022-08-11T11:06:12.555Z,47.02
2022-08-11T11:07:02.080Z,52.03
2022-08-11T11:08:01.135Z,43.83
2022-08-11T11:09:04.095Z,41.98
2022-08-11T11:10:02.020Z,45.04
2022-08-11T11:11:00.988Z,45.51
2022-08-11T11:12:00.985Z,44.36
2022-08-11T11:13:01.019Z,50.14
2022-08-11T11:14:00.989Z,46.94
2022-08-11T11:15:00.957Z,50.17
2022-08-11T11:16:00.941Z,43.70
2022-08-11T11:17:00.938Z,44.34
2022-08-11T11:18:01.946Z,49.43
2022-08-11T11:19:01.444Z,41.85
2022-08-11T11:20:00.988Z,40.20
2022-08-11T11:21:00.918Z,41.67
2022-08-11T11:22:00.936Z,44.44
2022-08-11T11:23:00.894Z,47.25
2022-08-11T11:24:00.873Z,47.51
2022-08-11T11:25:00.963Z,44.70
2022-08-11T11:26:00.831Z,41.77
2022-08-11T11:27:00.880Z,45.62
2022-08-11T11:28:00.993Z,47.46
2022-08-11T11:29:01.894Z,45.97
2022-08-11T11:30:00.896Z,42.84
2022-08-11T11:31:00.945Z,44.55
2022-08-11T11:32:00.806Z,54.03
2022-08-11T11:33:00.805Z,56.16
2022-08-11T11:34:12.286Z,48.81
2022-08-11T11:35:01.770Z,45.97
2022-08-11T11:36:00.749Z,44.82
2022-08-11T11:37:00.743Z,42.42
2022-08-11T11:38:04.784Z,44.58
2022-08-11T11:39:01.802Z,51.21
2022-08-11T11:40:00.780Z,43.71
2022-08-11T11:41:00.712Z,41.61
2022-08-11T11:42:00.682Z,44.78
2022-08-11T11:43:00.689Z,43.16
2022-08-11T11:44:01.371Z,43.76
2022-08-11T11:45:01.602Z,41.85
2022-08-11T11:46:01.674Z,43.49
2022-08-11T11:47:00.645Z,44.10
2022-08-11T11:48:00.674Z,45.58
2022-08-11T11:49:00.679Z,45.59
2022-08-11T11:50:00.723Z,43.67
2022-08-11T11:51:00.662Z,46.90
2022-08-11T11:52:00.679Z,51.61
2022-08-11T11:53:00.659Z,44.04
2022-08-11T11:54:00.653Z,44.71
2022-08-11T11:55:00.762Z,45.43
2022-08-11T11:56:00.652Z,47.89
2022-08-11T11:57:00.653Z,44.15
2022-08-11T11:58:02.739Z,44.91
2022-08-11T11:59:00.624Z,45.44
2022-08-11T12:00:00.734Z,46.35
2022-08-11T12:01:00.588Z,45.71
2022-08-11T12:02:01.640Z,46.40
2022-08-11T12:03:02.626Z,49.52
2022-08-11T12:04:00.594Z,48.77
2022-08-11T12:05:00.586Z,44.69
2022-08-11T12:06:00.608Z,48.72
2022-08-11T12:07:00.534Z,42.99
2022-08-11T12:08:12.500Z,43.56
2022-08-11T12:09:01.481Z,45.28
2022-08-11T12:10:00.556Z,45.46
2022-08-11T12:11:00.591Z,46.07
2022-08-11T12:12:00.520Z,50.80
2022-08-11T12:13:00.459Z,44.29
2022-08-11T12:14:00.525Z,49.94
2022-08-11T12:15:00.481Z,50.90
2022-08-11T12:16:31.567Z,47.15
2022-08-11T12:17:01.408Z,45.68
2022-08-11T12:18:00.463Z,48.47
2022-08-11T12:19:00.453Z,45.66
2022-08-11T12:20:01.723Z,44.31
2022-08-11T12:21:00.491Z,45.73
2022-08-11T12:22:00.885Z,52.03
2022-08-11T12:23:00.486Z,46.54
2022-08-11T12:24:04.330Z,52.38
2022-08-11T12:25:01.449Z,44.61
2022-08-11T12:26:25.204Z,45.25
2022-08-11T12:27:15.615Z,58.91
2022-08-11T12:28:01.347Z,42.67
2022-08-11T12:29:00.395Z,46.57
2022-08-11T12:30:00.391Z,46.13
2022-08-11T12:31:00.403Z,45.82
2022-08-11T12:32:00.422Z,42.95
2022-08-11T12:33:00.371Z,42.09
2022-08-11T12:34:00.384Z,42.24
2022-08-11T12:35:00.369Z,47.67
2022-08-11T12:36:00.995Z,45.43
2022-08-11T12:37:00.325Z,45.57
2022-08-11T12:38:03.757Z,43.18
2022-08-11T12:39:02.357Z,45.11
2022-08-11T12:40:37.957Z,46.41
2022-08-11T12:41:16.983Z,47.65
2022-08-11T12:42:02.400Z,45.60
2022-08-11T12:43:00.317Z,44.55
2022-08-11T12:44:00.218Z,45.15
2022-08-11T12:45:00.294Z,43.62
2022-08-11T12:46:00.357Z,45.89
2022-08-11T12:47:00.333Z,49.07
2022-08-11T12:48:42.576Z,48.18
2022-08-11T12:49:02.468Z,45.03
2022-08-11T12:50:01.219Z,43.16
2022-08-11T12:51:00.153Z,42.56
2022-08-11T12:52:13.964Z,43.68